Portada
METAR-TAF:

METAR-TAF

Aeroports :

Joensuu, Finlàndia

latitud: 62-40N, longitud: 029-38E, altitud: 119 m

Observació

L'informe es va fer fa 18 minuts, a les 00:50 UTC
Vent 12 kt del Est/Sud-Est
Temperatura -9°C
Humitat 92%
Pressió 995 hPa
Visibilitat: 6000 m
Cel cobert a una alçada de 500 ft
xàfecs de neu

METAR: EFJO 230050Z AUTO 12012KT 6000 -SHSN OVC005 M09/M10 Q0995

Hora: 03:08 (01:08 UTC)

Pronòstic

L'informe es va fer fa 9 hores i 28 minuts, a les 15:40 UTC
Pronòstic vàlid del 22 a les 15 UTC al 22 a les 18 UTC
Vent 10 kt del Est/Sud-Est
Visibilitat: 9000 m
Cel cobert a una alçada de 1200 ft
neu
Temporalment
l' 22 a les 15 UTC al 22 a les 18 UTC
Visibilitat: 5000 m
Cel ennuvolat a una alçada de 900 ft
Probabilitat 30% :
Temporalment
l' 22 a les 17 UTC al 22 a les 18 UTC
Visibilitat: 2500 m

TAF: EFJO 221540Z 2215/2218 11010KT 9000 -SN OVC012 TEMPO 2215/2218 5000 BKN009 PROB30 TEMPO 2217/2218 2500

Observacions i pronòstics meteorològics de més de 4000 aeroports (METAR i TAF).

Les estacions disponibles són els punts grocs i vermells al mapa.

Posi el ratolí al punt desitjat per veure el nom de l'estació.

Feu clic per veure les observacions i els pronòstics meteorològics.

Per canviar el mapa: feu clic els botons verds amb una creu de color negre per apropar; al botó verd amb un guió per allunyar la imatge; o en les fletxes verdes per a mapes adjacents.


METAR-TAF: